Flight Track Log - Related Links

Times and Time Zones

All times are in EDT time to prevent confusion due to time zone crossing. See the VNR104 flight status page for this flight to view local times or setup timezone preferences in your user account.

Time Position Orientation Groundspeed Altitude Reporting Facility
EDT Latitude Longitude Course Direction KTS MPH feet Rate Location/Type
Wed 10:33:39 PM 44.9958 -93.0622 10° North 143 165 4,500  Level Minneapolis Center
Wed 10:34:40 PM 45.0367 -93.0803 343° North 173 199 6,300 1,951 Climbing Minneapolis Center
Wed 10:35:42 PM 45.0128 -93.1436 242° Southwest 195 224 8,500 2,244 Climbing Minneapolis Center
Wed 10:36:43 PM 44.9667 -93.1878 214° Southwest 205 236 10,900 2,311 Climbing Minneapolis Center
Wed 10:37:44 PM 44.9186 -93.2286 211° Southwest 205 236 13,200 2,146 Climbing Minneapolis Center
Wed 10:38:46 PM 44.8553 -93.2792 210° Southwest 217 250 15,300 2,000 Climbing Minneapolis Center
Wed 10:39:47 PM 44.8019 -93.3225 210° Southwest 230 265 17,300 1,951 Climbing Minneapolis Center
Wed 10:40:49 PM 44.7461 -93.3667 209° Southwest 235 270 19,300 2,098 Climbing Minneapolis Center
Wed 10:41:50 PM 44.6903 -93.4122 210° Southwest 236 272 21,600 2,016 Climbing Minneapolis Center
Wed 10:42:51 PM 44.6461 -93.4483 210° Southwest 234 269 23,400 1,902 Climbing Minneapolis Center
Wed 10:43:53 PM 44.5644 -93.5128 209° Southwest 240 276 25,500 1,854 Climbing Minneapolis Center
Wed 10:44:54 PM 44.5019 -93.5631 210° Southwest 258 297 27,200 1,574 Climbing Minneapolis Center
Wed 10:45:55 PM 44.4392 -93.6131 210° Southwest 260 299 28,700 1,317 Climbing Minneapolis Center
Wed 10:46:57 PM 44.3761 -93.6631 210° Southwest 261 300 29,900 1,122 Climbing Minneapolis Center
Wed 10:47:58 PM 44.3103 -93.7175 211° Southwest 273 314 31,000 1,082 Climbing Minneapolis Center
Wed 10:48:59 PM 44.2442 -93.7700 210° Southwest 274 315 32,100 1,073 Climbing Minneapolis Center
Wed 10:50:01 PM 44.1769 -93.8225 209° Southwest 275 316 33,200 927 Climbing Minneapolis Center
Wed 10:51:02 PM 44.1111 -93.8753 210° Southwest 275 316 34,000 787 Climbing Minneapolis Center
Wed 10:52:03 PM 44.0281 -93.9425 210° Southwest 285 328 34,800 732 Climbing Minneapolis Center
Wed 10:53:05 PM 43.9586 -93.9969 209° Southwest 288 331 35,500 585 Climbing Minneapolis Center
Wed 10:54:06 PM 43.8881 -94.0533 210° Southwest 291 335 36,000 244 Climbing Minneapolis Center
Wed 10:55:08 PM 43.8153 -94.1111 210° Southwest 298 343 36,000  Level Minneapolis Center
Wed 10:56:09 PM 43.7389 -94.1717 210° Southwest 310 357 36,000  Level Minneapolis Center
Wed 10:57:10 PM 43.6744 -94.2197 208° Southwest 323 372 36,000  Level Minneapolis Center
Wed 10:58:12 PM 43.5642 -94.2319 185° South 329 379 36,000  Level Minneapolis Center
Wed 10:59:25 PM 43.4547 -94.2397 183° South 337 388 36,000  Level Minneapolis Center
Wed 11:00:27 PM 43.3617 -94.2464 183° South 340 391 36,000  Level Minneapolis Center
Wed 11:01:28 PM 43.2678 -94.2528 183° South 339 390 36,000  Level Minneapolis Center
Wed 11:02:30 PM 43.1542 -94.2594 182° South 341 392 36,000  Level Minneapolis Center
Wed 11:03:31 PM 43.0597 -94.2669 183° South 340 391 36,000  Level Minneapolis Center
Wed 11:04:33 PM 42.9694 -94.2722 182° South 337 388 36,000  Level Minneapolis Center
Wed 11:05:34 PM 42.8575 -94.2803 183° South 339 390 36,000  Level Minneapolis Center
Wed 11:06:36 PM 42.7642 -94.2867 183° South 339 390 36,000  Level Minneapolis Center
Wed 11:07:37 PM 42.6703 -94.2925 183° South 340 391 36,000  Level Minneapolis Center
Wed 11:08:38 PM 42.5764 -94.3008 184° South 341 392 36,000  Level Minneapolis Center
Wed 11:09:40 PM 42.4836 -94.3161 187° South 340 391 36,000  Level Minneapolis Center
Wed 11:10:41 PM 42.3892 -94.3267 185° South 340 391 36,000  Level Minneapolis Center
Wed 11:11:43 PM 42.2942 -94.3406 186° South 342 394 36,000  Level Minneapolis Center
Wed 11:12:44 PM 42.1808 -94.3561 186° South 341 392 36,000  Level Minneapolis Center
Wed 11:13:46 PM 42.0867 -94.3683 186° South 340 391 36,000  Level Minneapolis Center
Wed 11:14:47 PM 41.9914 -94.3814 186° South 342 394 36,000  Level Minneapolis Center
Wed 11:15:49 PM 41.8969 -94.3939 186° South 341 392 36,000  Level Minneapolis Center
Wed 11:17:03 PM 41.7836 -94.4100 186° South 340 391 36,000  Level Minneapolis Center
Wed 11:18:04 PM 41.6878 -94.4236 186° South 343 395 36,000  Level Minneapolis Center
Wed 11:19:05 PM 41.5942 -94.4356 185° South 338 389 36,000  Level Minneapolis Center
Wed 11:20:07 PM 41.5000 -94.4486 186° South 337 388 36,000  Level Minneapolis Center
Wed 11:21:20 PM 41.4058 -94.4611 186° South 338 389 36,000  Level Minneapolis Center
Wed 11:22:22 PM 41.2753 -94.4783 186° South 337 388 36,000  Level Minneapolis Center
Wed 11:23:23 PM 41.1811 -94.4914 186° South 337 388 36,000  Level Minneapolis Center
Wed 11:24:24 PM 41.0867 -94.5036 186° South 336 387 36,000  Level Minneapolis Center
Wed 11:25:26 PM 40.9933 -94.5161 186° South 336 387 36,000  Level Minneapolis Center
Wed 11:26:27 PM 40.8986 -94.5306 187° South 340 391 36,000  Level Minneapolis Center
Wed 11:27:28 PM 40.8053 -94.5422 185° South 341 392 36,000  Level Minneapolis Center
Wed 11:28:30 PM 40.7153 -94.5533 185° South 336 387 36,000  Level Minneapolis Center
Wed 11:29:31 PM 40.6206 -94.5653 185° South 334 384 36,000  Level Minneapolis Center
Wed 11:30:32 PM 40.5253 -94.5792 186° South 340 391 36,000  Level Minneapolis Center
Wed 11:31:33 PM 40.4319 -94.5919 186° South 338 389 36,000 -439 Level Minneapolis Center
Wed 11:32:35 PM 40.3361 -94.5883 178° South 350 403 35,100 -488 Descending Minneapolis Center
Wed 11:33:36 PM 40.2336 -94.5003 147° Southeast 396 456 35,000 -49 Descending Minneapolis Center
Wed 11:34:37 PM 40.1436 -94.4211 146° Southeast 394 453 35,000  Level Minneapolis Center
Wed 11:35:01 PM 40.0989 -94.3797 145° Southeast 393 452 35,000  Level Kansas City Center
Wed 11:36:01 PM 40.0128 -94.3017 145° Southeast 393 452 35,000  Level Kansas City Center
Wed 11:37:02 PM 39.9258 -94.2258 146° Southeast 392 451 35,000  Level Kansas City Center
Wed 11:38:03 PM 39.8244 -94.1364 146° Southeast 393 452 35,000  Level Kansas City Center
Wed 11:39:04 PM 39.7372 -94.0594 146° Southeast 394 453 35,000  Level Kansas City Center
Wed 11:40:05 PM 39.6500 -93.9839 146° Southeast 393 452 35,000  Level Kansas City Center
Wed 11:41:05 PM 39.5625 -93.9061 146° Southeast 395 455 35,000 198 Level Kansas City Center
Wed 11:42:06 PM 39.4597 -93.8156 146° Southeast 394 453 35,400 639 Climbing Kansas City Center
Wed 11:43:07 PM 39.3761 -93.7436 146° Southeast 380 437 36,300 689 Climbing Kansas City Center
Wed 11:44:08 PM 39.2942 -93.6706 145° Southeast 367 422 36,800 295 Climbing Kansas City Center
Wed 11:45:09 PM 39.1981 -93.6136 155° Southeast 361 415 36,900 99 Climbing Kansas City Center
Wed 11:46:09 PM 39.1122 -93.6386 193° South 330 380 37,000 50 Climbing Kansas City Center
Wed 11:47:10 PM 39.0397 -93.6917 210° Southwest 317 365 37,000  Level Kansas City Center
Wed 11:48:11 PM 38.9486 -93.7503 207° Southwest 326 375 37,000  Level Kansas City Center
Wed 11:49:12 PM 38.8658 -93.7950 203° Southwest 333 383 37,000  Level Kansas City Center
Wed 11:50:12 PM 38.7825 -93.8411 203° Southwest 337 388 37,000 50 Level Kansas City Center
Wed 11:51:13 PM 38.6881 -93.8925 203° Southwest 332 382 37,100 492 Climbing Kansas City Center
Wed 11:52:14 PM 38.6094 -93.9364 204° Southwest 324 373 38,000 446 Climbing Kansas City Center
Wed 11:53:14 PM 38.5353 -93.9767 203° Southwest 308 354 38,000  Level Kansas City Center
Wed 11:54:15 PM 38.4550 -94.0208 203° Southwest 311 358 38,000  Level Kansas City Center
Wed 11:55:16 PM 38.3717 -94.0658 203° Southwest 319 367 38,000  Level Kansas City Center
Wed 11:56:17 PM 38.2836 -94.1133 203° Southwest 326 375 38,000  Level Kansas City Center
Wed 11:57:17 PM 38.1875 -94.1650 203° Southwest 330 380 38,000  Level Kansas City Center
Wed 11:58:18 PM 38.1058 -94.2092 203° Southwest 333 383 38,000  Level Kansas City Center
Wed 11:59:19 PM 38.0236 -94.2539 203° Southwest 334 384 38,000  Level Kansas City Center
Thu 12:00:19 AM 37.9269 -94.3053 203° Southwest 334 384 38,000  Level Kansas City Center
Thu 12:01:20 AM 37.8411 -94.3517 203° Southwest 335 386 38,000  Level Kansas City Center
Thu 12:02:21 AM 37.7542 -94.3975 203° Southwest 337 388 38,000  Level Kansas City Center
Thu 12:03:21 AM 37.6806 -94.4381 204° Southwest 335 386 38,000  Level Kansas City Center
Thu 12:04:22 AM 37.5931 -94.4850 203° Southwest 337 388 38,000  Level Kansas City Center
Thu 12:05:23 AM 37.5072 -94.5308 203° Southwest 335 386 38,000  Level Kansas City Center
Thu 12:06:23 AM 37.4217 -94.5769 203° Southwest 333 383 38,000  Level Kansas City Center
Thu 12:07:24 AM 37.3364 -94.6211 202° Southwest 332 382 38,000  Level Kansas City Center
Thu 12:08:25 AM 37.2331 -94.6731 202° Southwest 331 381 38,000  Level Kansas City Center
Thu 12:09:25 AM 37.1483 -94.7183 203° Southwest 331 381 38,000  Level Kansas City Center
Thu 12:10:26 AM 37.0625 -94.7633 203° Southwest 331 381 38,000  Level Kansas City Center
Thu 12:11:27 AM 36.9778 -94.8114 204° Southwest 333 383 38,000  Level Kansas City Center
Thu 12:12:27 AM 36.8917 -94.8542 202° Southwest 333 383 38,000  Level Kansas City Center
Thu 12:13:28 AM 36.8072 -94.8978 202° Southwest 329 379 38,000  Level Kansas City Center
Thu 12:14:28 AM 36.7244 -94.9417 203° Southwest 325 374 38,000  Level Kansas City Center
Thu 12:15:29 AM 36.6411 -94.9856 203° Southwest 323 372 38,000  Level Kansas City Center
Thu 12:16:30 AM 36.5583 -95.0281 202° Southwest 322 371 38,000  Level Kansas City Center
Thu 12:17:30 AM 36.4761 -95.0700 202° Southwest 320 368 38,000  Level Kansas City Center
Thu 12:18:31 AM 36.4058 -95.1067 203° Southwest 317 365 38,000  Level Kansas City Center
Thu 12:19:31 AM 36.3242 -95.1489 203° Southwest 318 366 38,000  Level Kansas City Center
Thu 12:20:32 AM 36.2253 -95.1989 202° Southwest 319 367 38,000  Level Kansas City Center
Thu 12:21:33 AM 36.1431 -95.2414 203° Southwest 320 368 38,000  Level Kansas City Center
Thu 12:22:33 AM 36.0611 -95.2833 202° Southwest 320 368 38,000  Level Kansas City Center
Thu 12:23:34 AM 35.9778 -95.3256 202° Southwest 321 369 38,000  Level Kansas City Center
Thu 12:24:34 AM 35.8944 -95.3675 202° Southwest 321 369 38,000  Level Kansas City Center
Thu 12:25:35 AM 35.8103 -95.4103 202° Southwest 323 372 38,000  Level Kansas City Center
Thu 12:26:36 AM 35.7272 -95.4522 202° Southwest 323 372 38,000  Level Kansas City Center
Thu 12:27:36 AM 35.6442 -95.4944 202° Southwest 322 371 38,000  Level Kansas City Center
Thu 12:28:37 AM 35.5608 -95.5358 202° Southwest 322 371 38,000  Level Kansas City Center
Thu 12:29:37 AM 35.4778 -95.5778 202° Southwest 323 372 38,000  Level Kansas City Center
Thu 12:30:38 AM 35.3933 -95.6192 202° Southwest 325 374 38,000  Level Kansas City Center
Thu 12:31:38 AM 35.3094 -95.6611 202° Southwest 325 374 38,000  Level Kansas City Center
Thu 12:32:50 AM 35.2050 -95.7189 204° Southwest 329 379 38,000  Level Fort Worth Center
Thu 12:33:50 AM 35.1222 -95.7586 201° Southwest 329 379 38,000  Level Fort Worth Center
Thu 12:34:50 AM 35.0372 -95.8008 202° Southwest 329 379 38,000 50 Level Fort Worth Center
Thu 12:35:50 AM 34.9522 -95.8431 202° Southwest 334 384 38,100  Climbing Fort Worth Center
Thu 12:36:50 AM 34.8608 -95.8850 201° Southwest 341 392 38,000 -50 Descending Fort Worth Center
Thu 12:37:50 AM 34.7717 -95.9297 202° Southwest 347 399 38,000  Level Fort Worth Center
Thu 12:38:50 AM 34.6806 -95.9717 201° Southwest 347 399 38,000  Level Fort Worth Center
Thu 12:39:50 AM 34.5911 -96.0161 202° Southwest 352 405 38,000 -350 Level Fort Worth Center
Thu 12:40:50 AM 34.4978 -96.0603 201° Southwest 352 405 37,300 -1,350 Descending Fort Worth Center
Thu 12:41:50 AM 34.4147 -96.1019 202° Southwest 346 398 35,300 -2,000 Descending Fort Worth Center
Thu 12:42:50 AM 34.3278 -96.1461 203° Southwest 346 398 33,300 -2,000 Descending Fort Worth Center
Thu 12:43:50 AM 34.2406 -96.1900 203° Southwest 341 392 31,300 -2,000 Descending Fort Worth Center
Thu 12:44:50 AM 34.1533 -96.2314 201° Southwest 341 392 29,300 -2,050 Descending Fort Worth Center
Thu 12:45:50 AM 34.0597 -96.2753 201° Southwest 346 398 27,200 -2,050 Descending Fort Worth Center
Thu 12:46:50 AM 33.9683 -96.3217 203° Southwest 353 406 25,200 -2,000 Descending Fort Worth Center
Thu 12:47:50 AM 33.8789 -96.3678 203° Southwest 353 406 23,200 -2,050 Descending Fort Worth Center
Thu 12:48:50 AM 33.7978 -96.4036 200° South 331 381 21,100 -1,950 Descending Fort Worth Center
Thu 12:49:50 AM 33.7208 -96.4394 201° Southwest 319 367 19,300 -2,000 Descending Fort Worth Center
Thu 12:50:50 AM 33.6336 -96.4828 202° Southwest 314 361 17,100 -2,050 Descending Fort Worth Center
Thu 12:51:50 AM 33.5608 -96.5161 201° Southwest 314 361 15,200 -2,000 Descending Fort Worth Center
Thu 12:52:50 AM 33.4797 -96.5567 203° Southwest 304 350 13,100 -1,950 Descending Fort Worth Center
Thu 12:53:50 AM 33.4069 -96.5897 201° Southwest 285 328 11,300 -1,200 Descending Fort Worth Center
Thu 12:54:50 AM 33.3422 -96.6203 202° Southwest 280 322 10,700 -1,300 Descending Fort Worth Center
Thu 12:55:50 AM 33.2717 -96.6606 206° Southwest 267 307 8,700 -1,650 Descending Fort Worth Center
Thu 12:56:50 AM 33.2114 -96.7058 212° Southwest 260 299 7,400 -1,600 Descending Fort Worth Center
Thu 12:57:50 AM 33.1511 -96.7486 211° Southwest 260 299 5,500 -1,650 Descending Fort Worth Center
Thu 12:58:50 AM 33.0969 -96.7836 208° Southwest 254 292 4,100 -826 Descending Fort Worth Center
Thu 12:59:39 AM 33.0500 -96.8167 211° Southwest 242 278 4,000 -771 Descending Dallas / Fort Worth TRACON
Thu 01:00:39 AM 32.9833 -96.8500 203° Southwest 203 234 2,700 -1,000 Descending Dallas / Fort Worth TRACON
Thu 01:01:39 AM 32.9500 -96.9000 232° Southwest 172 198 2,000 -429 Descending Dallas / Fort Worth TRACON
Thu 01:02:45 AM 32.9167 -96.9000 180° South 98 113 1,800 -318 Descending Dallas / Fort Worth TRACON
Thu 01:03:51 AM 32.8833 -96.8833 157° South 108 124 1,300 -455 Descending Dallas / Fort Worth TRACON
Thu 01:06:00 AM 32.8471 -96.8518 209° Southwest  Level Estimated
Thu 01:13:00 AM 32.8471 -96.8518 209° Southwest  Level Estimated

Login

Don't have an account? Register now (free) for customized features, flight alerts, and more!